createdAt,value
2023-03-04T00:01:34.885Z,5.66
2023-03-04T00:04:20.047Z,5.60
2023-03-04T00:07:05.184Z,5.56
2023-03-04T00:09:50.548Z,5.63
2023-03-04T00:12:35.395Z,5.52
2023-03-04T00:15:20.536Z,5.41
2023-03-04T00:18:05.405Z,5.56
2023-03-04T00:20:50.894Z,5.52
2023-03-04T00:23:36.191Z,5.46
2023-03-04T00:26:21.462Z,5.57
2023-03-04T00:29:06.527Z,5.52
2023-03-04T00:31:51.606Z,5.51
2023-03-04T00:34:36.987Z,5.46
2023-03-04T00:37:22.271Z,5.42
2023-03-04T00:40:08.210Z,5.50
2023-03-04T00:42:53.355Z,5.44
2023-03-04T00:45:38.714Z,5.31
2023-03-04T00:48:24.041Z,5.42
2023-03-04T00:51:09.098Z,5.35
2023-03-04T00:53:54.423Z,5.40
2023-03-04T00:56:39.502Z,5.34
2023-03-04T00:59:24.750Z,5.40
2023-03-04T01:02:10.789Z,5.31
2023-03-04T01:04:56.239Z,5.32
2023-03-04T01:07:41.542Z,5.39
2023-03-04T01:10:26.760Z,5.36
2023-03-04T01:13:11.852Z,5.24
2023-03-04T01:15:57.741Z,5.34
2023-03-04T01:18:44.797Z,5.26
2023-03-04T01:21:29.816Z,5.38
2023-03-04T01:24:14.804Z,5.27
2023-03-04T01:27:00.047Z,5.34
2023-03-04T01:29:45.055Z,5.37
2023-03-04T01:32:30.215Z,5.37
2023-03-04T01:35:15.707Z,5.20
2023-03-04T01:38:00.908Z,5.27
2023-03-04T01:40:46.224Z,5.41
2023-03-04T01:43:31.699Z,5.43
2023-03-04T01:46:17.794Z,5.39
2023-03-04T01:49:04.097Z,5.41
2023-03-04T01:51:52.917Z,5.37
2023-03-04T01:54:38.513Z,5.30
2023-03-04T01:57:25.347Z,5.20
2023-03-04T02:00:22.599Z,5.37
2023-03-04T02:03:12.602Z,5.37
2023-03-04T02:05:57.989Z,5.34
2023-03-04T02:08:42.977Z,5.44
2023-03-04T02:11:28.512Z,5.39
2023-03-04T02:14:14.922Z,5.25
2023-03-04T02:16:59.980Z,5.33
2023-03-04T02:19:56.644Z,5.30
2023-03-04T02:22:51.890Z,5.33
2023-03-04T02:25:47.029Z,5.17
2023-03-04T02:28:31.976Z,5.03
2023-03-04T02:31:37.162Z,5.22
2023-03-04T02:34:25.241Z,5.20
2023-03-04T02:37:10.667Z,5.24
2023-03-04T02:39:55.872Z,5.25
2023-03-04T02:42:44.143Z,5.26
2023-03-04T02:45:39.476Z,5.26
2023-03-04T02:48:25.056Z,5.22
2023-03-04T02:51:10.092Z,5.31
2023-03-04T02:53:55.434Z,5.29
2023-03-04T02:56:45.222Z,5.33
2023-03-04T02:59:30.886Z,5.29
2023-03-04T03:02:16.250Z,5.26
2023-03-04T03:05:01.619Z,5.28
2023-03-04T03:07:46.830Z,5.17
2023-03-04T03:10:32.505Z,5.21
2023-03-04T03:13:17.747Z,5.24
2023-03-04T03:16:03.070Z,5.20
2023-03-04T03:18:48.284Z,5.25
2023-03-04T03:21:33.520Z,5.18
2023-03-04T03:24:20.227Z,5.24
2023-03-04T03:27:05.207Z,5.19
2023-03-04T03:29:50.276Z,5.20
2023-03-04T03:32:35.281Z,5.17
2023-03-04T03:35:21.380Z,4.96
2023-03-04T03:38:06.820Z,5.08
2023-03-04T03:40:52.083Z,5.12
2023-03-04T03:43:37.395Z,5.04
2023-03-04T03:46:22.516Z,4.97
2023-03-04T03:49:07.796Z,5.00
2023-03-04T03:51:52.897Z,5.03
2023-03-04T03:54:37.835Z,5.00
2023-03-04T03:57:23.070Z,5.07
2023-03-04T04:00:09.644Z,4.99
2023-03-04T04:02:56.622Z,5.07
2023-03-04T04:05:41.694Z,5.16
2023-03-04T04:08:26.945Z,5.03
2023-03-04T04:11:12.813Z,5.17
2023-03-04T04:13:58.034Z,5.08
2023-03-04T04:16:43.384Z,4.99
2023-03-04T04:19:28.562Z,5.14
2023-03-04T04:22:16.790Z,5.20
2023-03-04T04:25:02.029Z,5.20
2023-03-04T04:27:47.204Z,5.08
2023-03-04T04:30:32.428Z,5.02
2023-03-04T04:33:17.729Z,5.08
2023-03-04T04:36:03.584Z,4.99
2023-03-04T04:38:49.403Z,5.09
2023-03-04T04:41:40.872Z,5.07
2023-03-04T04:44:26.024Z,5.03
2023-03-04T04:47:11.479Z,5.04
2023-03-04T04:49:56.572Z,5.00
2023-03-04T04:52:41.870Z,4.97
2023-03-04T04:55:27.028Z,4.84
2023-03-04T04:58:12.160Z,4.94
2023-03-04T05:00:58.146Z,5.05
2023-03-04T05:03:43.385Z,5.02
2023-03-04T05:06:28.788Z,5.00
2023-03-04T05:09:13.797Z,5.06
2023-03-04T05:11:58.862Z,5.14
2023-03-04T05:14:44.025Z,5.18
2023-03-04T05:17:28.995Z,5.13
2023-03-04T05:20:14.307Z,5.08
2023-03-04T05:22:59.299Z,5.13
2023-03-04T05:25:44.747Z,5.06
2023-03-04T05:28:30.692Z,5.19
2023-03-04T05:31:16.527Z,5.17
2023-03-04T05:34:01.970Z,5.13
2023-03-04T05:36:47.290Z,5.09
2023-03-04T05:39:32.557Z,5.05
2023-03-04T05:42:17.694Z,5.17
2023-03-04T05:45:02.642Z,5.02
2023-03-04T05:47:48.056Z,5.12
2023-03-04T05:50:33.965Z,5.16
2023-03-04T05:53:19.280Z,5.08
2023-03-04T05:56:09.891Z,5.21
2023-03-04T05:58:58.012Z,5.19
2023-03-04T06:01:43.117Z,5.07
2023-03-04T06:04:28.315Z,5.07
2023-03-04T06:07:13.192Z,5.11
2023-03-04T06:09:58.419Z,4.97
2023-03-04T06:12:43.876Z,5.06
2023-03-04T06:15:28.854Z,5.08
2023-03-04T06:18:14.164Z,5.07
2023-03-04T06:21:01.639Z,5.09
2023-03-04T06:23:47.184Z,4.95
2023-03-04T06:26:32.412Z,5.11
2023-03-04T06:29:17.597Z,5.07
2023-03-04T06:32:02.732Z,5.14
2023-03-04T06:34:47.970Z,5.15
2023-03-04T06:37:32.944Z,5.13
2023-03-04T06:40:18.301Z,4.96
2023-03-04T06:43:03.541Z,4.98
2023-03-04T06:45:50.976Z,5.11
2023-03-04T06:48:36.032Z,5.22
2023-03-04T06:51:21.418Z,5.24
2023-03-04T06:54:06.566Z,5.23
2023-03-04T06:56:51.843Z,5.16
2023-03-04T06:59:37.023Z,5.09
2023-03-04T07:02:22.291Z,4.97
2023-03-04T07:05:07.895Z,5.06
2023-03-04T07:07:53.000Z,5.03
2023-03-04T07:10:38.294Z,5.07
2023-03-04T07:13:23.463Z,5.05
2023-03-04T07:16:12.368Z,5.00
2023-03-04T07:18:57.615Z,5.07
2023-03-04T07:21:42.855Z,5.03
2023-03-04T07:24:28.233Z,5.14
2023-03-04T07:27:13.691Z,5.08
2023-03-04T07:29:58.971Z,5.21
2023-03-04T07:32:44.042Z,5.08
2023-03-04T07:35:29.223Z,5.21
2023-03-04T07:38:14.531Z,5.25
2023-03-04T07:41:00.199Z,5.03
2023-03-04T07:43:45.591Z,5.33
2023-03-04T07:46:30.789Z,5.34
2023-03-04T07:49:16.186Z,5.21
2023-03-04T07:52:05.545Z,5.29
2023-03-04T07:54:50.805Z,5.30
2023-03-04T07:57:38.264Z,5.34
2023-03-04T08:00:23.745Z,5.37
2023-03-04T08:03:08.957Z,5.29
2023-03-04T08:05:54.033Z,5.41
2023-03-04T08:08:39.201Z,5.36
2023-03-04T08:11:25.377Z,5.23
2023-03-04T08:14:14.889Z,5.33
2023-03-04T08:16:59.699Z,5.34
2023-03-04T08:19:44.969Z,5.38
2023-03-04T08:22:30.128Z,5.45
2023-03-04T08:25:15.130Z,5.37
2023-03-04T08:28:00.215Z,5.42
2023-03-04T08:30:45.622Z,5.40
2023-03-04T08:33:32.288Z,5.34
2023-03-04T08:36:17.283Z,5.45
2023-03-04T08:39:03.664Z,5.48
2023-03-04T08:41:49.205Z,5.49
2023-03-04T08:44:34.119Z,5.49
2023-03-04T08:47:19.020Z,5.48
2023-03-04T08:50:06.227Z,5.50
2023-03-04T08:52:51.426Z,5.47
2023-03-04T08:55:38.689Z,5.42
2023-03-04T08:58:23.712Z,5.25
2023-03-04T09:01:13.901Z,5.48
2023-03-04T09:03:59.009Z,5.33
2023-03-04T09:06:43.997Z,5.35
2023-03-04T09:09:29.536Z,5.57
2023-03-04T09:12:14.894Z,5.58
2023-03-04T09:15:10.809Z,5.61
2023-03-04T09:17:56.966Z,5.61
2023-03-04T09:20:42.590Z,5.66
2023-03-04T09:23:28.020Z,5.82
2023-03-04T09:26:23.949Z,5.95
2023-03-04T09:29:09.937Z,6.01
2023-03-04T09:31:54.946Z,6.12
2023-03-04T09:34:40.151Z,6.15
2023-03-04T09:37:25.308Z,6.09
2023-03-04T09:40:18.522Z,6.21
2023-03-04T09:43:05.318Z,6.35
2023-03-04T09:45:54.987Z,6.51
2023-03-04T09:48:46.669Z,6.70
2023-03-04T09:51:40.485Z,6.52
2023-03-04T09:54:29.121Z,6.35
2023-03-04T09:57:29.206Z,6.13
2023-03-04T10:00:32.729Z,6.27
2023-03-04T10:03:20.352Z,6.31
2023-03-04T10:06:09.643Z,6.26
2023-03-04T10:09:19.540Z,6.18
2023-03-04T10:12:07.970Z,6.18
2023-03-04T10:14:59.513Z,6.36
2023-03-04T10:17:48.538Z,6.57
2023-03-04T10:21:03.206Z,6.57
2023-03-04T10:23:49.228Z,6.60
2023-03-04T10:26:34.482Z,6.70
2023-03-04T10:29:22.878Z,6.93
2023-03-04T10:32:14.713Z,7.02
2023-03-04T10:34:59.877Z,7.21
2023-03-04T10:37:47.177Z,7.22
2023-03-04T10:40:39.156Z,7.28
2023-03-04T10:43:24.818Z,7.51
2023-03-04T10:46:12.266Z,7.35
2023-03-04T10:48:58.811Z,7.34
2023-03-04T10:51:46.670Z,7.17
2023-03-04T10:54:37.888Z,7.19
2023-03-04T10:57:41.429Z,7.21
2023-03-04T11:00:33.916Z,7.06
2023-03-04T11:03:29.937Z,7.28
2023-03-04T11:06:19.805Z,7.35
2023-03-04T11:09:04.739Z,7.44
2023-03-04T11:11:52.297Z,7.47
2023-03-04T11:14:43.272Z,7.40
2023-03-04T11:17:40.008Z,7.32
2023-03-04T11:20:41.550Z,7.37
2023-03-04T11:23:43.307Z,7.44
2023-03-04T11:26:36.812Z,7.38
2023-03-04T11:29:26.404Z,7.40
2023-03-04T11:32:19.056Z,7.36
2023-03-04T11:35:18.698Z,7.49
2023-03-04T11:38:29.151Z,7.41
2023-03-04T11:41:19.306Z,7.56
2023-03-04T11:44:08.984Z,7.54
2023-03-04T11:47:22.293Z,7.53
2023-03-04T11:50:12.926Z,7.46
2023-03-04T11:53:19.406Z,7.38
2023-03-04T11:56:13.947Z,7.38
2023-03-04T11:59:27.221Z,7.31
2023-03-04T12:02:20.262Z,7.36
2023-03-04T12:05:14.507Z,7.37
2023-03-04T12:08:32.210Z,7.39
2023-03-04T12:11:43.806Z,7.46
2023-03-04T12:14:41.530Z,7.51
2023-03-04T12:17:43.842Z,7.70
2023-03-04T12:20:44.871Z,7.79
2023-03-04T12:24:03.228Z,7.73
2023-03-04T12:26:58.245Z,7.87
2023-03-04T12:30:06.360Z,7.93
2023-03-04T12:33:04.585Z,7.90
2023-03-04T12:36:14.543Z,7.98
2023-03-04T12:39:18.257Z,8.01
2023-03-04T12:42:12.334Z,8.03
2023-03-04T12:45:27.384Z,7.93
2023-03-04T12:48:38.594Z,7.75
2023-03-04T12:51:44.434Z,7.66
2023-03-04T12:54:39.361Z,7.58
2023-03-04T12:57:26.182Z,7.65
2023-03-04T13:00:17.278Z,7.55
2023-03-04T13:03:28.733Z,7.42
2023-03-04T13:06:35.750Z,7.41
2023-03-04T13:09:29.022Z,7.44
2023-03-04T13:12:16.164Z,7.45
2023-03-04T13:15:07.506Z,7.48
2023-03-04T13:18:30.276Z,7.53
2023-03-04T13:21:21.024Z,7.56
2023-03-04T13:24:45.692Z,7.64
2023-03-04T13:27:50.499Z,7.57
2023-03-04T13:30:35.623Z,7.53
2023-03-04T13:33:24.013Z,7.55
2023-03-04T13:36:28.411Z,7.52
2023-03-04T13:39:16.424Z,7.50
2023-03-04T13:42:01.941Z,7.53
2023-03-04T13:44:46.929Z,7.53
2023-03-04T13:47:42.342Z,7.61
2023-03-04T13:50:34.768Z,7.57
2023-03-04T13:53:25.927Z,7.70
2023-03-04T13:56:14.005Z,7.73
2023-03-04T13:59:08.332Z,7.71
2023-03-04T14:02:00.045Z,7.69
2023-03-04T14:04:54.595Z,7.73
2023-03-04T14:07:39.801Z,7.73
2023-03-04T14:10:25.236Z,7.93
2023-03-04T14:13:11.589Z,7.89
2023-03-04T14:15:58.910Z,7.84
2023-03-04T14:18:44.354Z,7.80
2023-03-04T14:21:31.495Z,7.79
2023-03-04T14:24:19.721Z,7.82
2023-03-04T14:27:13.615Z,7.80
2023-03-04T14:30:01.417Z,7.83
2023-03-04T14:32:48.593Z,7.64
2023-03-04T14:35:34.625Z,7.53
2023-03-04T14:38:38.596Z,7.52
2023-03-04T14:41:35.525Z,7.46
2023-03-04T14:44:20.687Z,7.28
2023-03-04T14:47:11.625Z,7.28
2023-03-04T14:49:56.849Z,7.11
2023-03-04T14:52:44.968Z,7.21
2023-03-04T14:55:30.447Z,7.21
2023-03-04T14:58:28.942Z,7.19
2023-03-04T15:01:23.520Z,7.20
2023-03-04T15:04:11.705Z,7.21
2023-03-04T15:06:56.675Z,7.23
2023-03-04T15:09:42.372Z,7.12
2023-03-04T15:12:30.745Z,7.15
2023-03-04T15:15:37.664Z,7.20
2023-03-04T15:18:27.854Z,7.17
2023-03-04T15:21:38.513Z,7.18
2023-03-04T15:24:23.734Z,7.20
2023-03-04T15:27:12.665Z,7.26
2023-03-04T15:29:59.488Z,7.32
2023-03-04T15:32:44.798Z,7.27
2023-03-04T15:35:32.959Z,7.27
2023-03-04T15:38:18.225Z,7.22
2023-03-04T15:41:03.605Z,7.22
2023-03-04T15:43:48.882Z,7.18
2023-03-04T15:46:34.210Z,7.18
2023-03-04T15:49:19.522Z,7.12
2023-03-04T15:52:06.258Z,7.06
2023-03-04T15:54:51.814Z,6.92
2023-03-04T15:57:36.792Z,6.88
2023-03-04T16:00:22.002Z,7.05
2023-03-04T16:03:07.100Z,7.09
2023-03-04T16:05:52.950Z,7.11
2023-03-04T16:08:39.081Z,7.13
2023-03-04T16:11:27.328Z,7.04
2023-03-04T16:14:16.857Z,7.01
2023-03-04T16:17:02.199Z,7.16
2023-03-04T16:19:47.643Z,7.14
2023-03-04T16:22:32.609Z,7.07
2023-03-04T16:25:18.761Z,7.15
2023-03-04T16:28:04.131Z,7.13
2023-03-04T16:30:49.740Z,7.15
2023-03-04T16:33:34.814Z,7.11
2023-03-04T16:36:23.433Z,7.11
2023-03-04T16:39:18.713Z,6.97
2023-03-04T16:42:03.934Z,7.03
2023-03-04T16:44:49.620Z,7.01
2023-03-04T16:47:34.524Z,7.03
2023-03-04T16:50:27.222Z,6.95
2023-03-04T16:53:28.756Z,6.84
2023-03-04T16:56:16.534Z,6.81
2023-03-04T16:59:01.773Z,6.83
2023-03-04T17:01:47.636Z,6.89
2023-03-04T17:04:32.708Z,6.90
2023-03-04T17:07:17.701Z,6.92
2023-03-04T17:10:02.956Z,6.90
2023-03-04T17:12:48.040Z,6.91
2023-03-04T17:15:33.321Z,6.88
2023-03-04T17:18:18.593Z,6.88
2023-03-04T17:21:05.659Z,6.87
2023-03-04T17:23:51.086Z,6.82
2023-03-04T17:26:36.242Z,6.60
2023-03-04T17:29:21.462Z,6.77
2023-03-04T17:32:06.868Z,6.77
2023-03-04T17:34:54.655Z,6.77
2023-03-04T17:37:40.653Z,6.62
2023-03-04T17:40:25.813Z,6.58
2023-03-04T17:43:13.951Z,6.68
2023-03-04T17:46:05.039Z,6.65
2023-03-04T17:48:51.886Z,6.61
2023-03-04T17:51:38.933Z,6.50
2023-03-04T17:54:23.779Z,6.55
2023-03-04T17:57:10.038Z,6.60
2023-03-04T17:59:56.169Z,6.55
2023-03-04T18:02:41.399Z,6.51
2023-03-04T18:05:26.283Z,6.52
2023-03-04T18:08:11.342Z,6.40
2023-03-04T18:10:56.537Z,6.46
2023-03-04T18:13:43.446Z,6.48
2023-03-04T18:16:28.990Z,6.37
2023-03-04T18:19:14.023Z,6.54
2023-03-04T18:21:59.193Z,6.53
2023-03-04T18:24:44.364Z,6.40
2023-03-04T18:27:29.371Z,6.49
2023-03-04T18:30:20.925Z,6.51
2023-03-04T18:33:06.087Z,6.53
2023-03-04T18:35:57.544Z,6.54
2023-03-04T18:38:42.490Z,6.32
2023-03-04T18:41:28.296Z,6.44
2023-03-04T18:44:13.483Z,6.42
2023-03-04T18:46:58.517Z,6.40
2023-03-04T18:49:45.755Z,6.18
2023-03-04T18:52:31.093Z,6.39
2023-03-04T18:55:18.014Z,6.32
2023-03-04T18:58:03.867Z,6.23
2023-03-04T19:00:48.905Z,6.35
2023-03-04T19:03:37.602Z,6.38
2023-03-04T19:06:24.890Z,6.48
2023-03-04T19:09:10.480Z,6.43
2023-03-04T19:11:55.945Z,6.35
2023-03-04T19:14:41.009Z,6.37
2023-03-04T19:17:28.676Z,6.39
2023-03-04T19:20:15.024Z,6.38
2023-03-04T19:23:00.037Z,6.37
2023-03-04T19:25:45.102Z,6.33
2023-03-04T19:28:30.519Z,6.19
2023-03-04T19:31:15.615Z,6.18
2023-03-04T19:34:00.817Z,6.12
2023-03-04T19:36:45.727Z,6.24
2023-03-04T19:39:30.727Z,6.19
2023-03-04T19:42:16.544Z,6.17
2023-03-04T19:45:03.460Z,6.12
2023-03-04T19:47:48.389Z,6.21
2023-03-04T19:50:33.617Z,6.22
2023-03-04T19:53:18.807Z,6.17
2023-03-04T19:56:04.335Z,6.18
2023-03-04T19:58:50.133Z,6.22
2023-03-04T20:01:37.499Z,6.24
2023-03-04T20:04:23.038Z,6.21
2023-03-04T20:07:08.793Z,6.21
2023-03-04T20:09:57.484Z,6.13
2023-03-04T20:12:42.515Z,6.14
2023-03-04T20:15:27.856Z,5.99
2023-03-04T20:18:12.938Z,6.09
2023-03-04T20:20:58.310Z,6.07
2023-03-04T20:23:43.636Z,6.05
2023-03-04T20:26:30.251Z,5.97
2023-03-04T20:29:15.530Z,6.09
2023-03-04T20:32:01.429Z,6.07
2023-03-04T20:34:49.421Z,6.07
2023-03-04T20:37:36.098Z,6.07
2023-03-04T20:40:21.184Z,6.06
2023-03-04T20:43:06.857Z,6.08
2023-03-04T20:45:51.943Z,6.08
2023-03-04T20:48:36.887Z,6.07
2023-03-04T20:51:22.839Z,6.05
2023-03-04T20:54:09.535Z,5.92
2023-03-04T20:56:54.924Z,5.93
2023-03-04T20:59:41.129Z,6.01
2023-03-04T21:02:26.030Z,6.02
2023-03-04T21:05:11.263Z,5.92
2023-03-04T21:07:56.599Z,5.88
2023-03-04T21:10:42.048Z,5.94
2023-03-04T21:13:30.459Z,5.84
2023-03-04T21:16:17.393Z,5.95
2023-03-04T21:19:02.849Z,5.95
2023-03-04T21:21:49.703Z,5.94
2023-03-04T21:24:36.355Z,5.92
2023-03-04T21:27:21.594Z,5.92
2023-03-04T21:30:07.334Z,5.92
2023-03-04T21:32:53.413Z,5.91
2023-03-04T21:35:38.510Z,5.82
2023-03-04T21:38:23.789Z,5.85
2023-03-04T21:41:14.383Z,5.90
2023-03-04T21:43:59.250Z,5.89
2023-03-04T21:46:44.237Z,5.86
2023-03-04T21:49:29.619Z,5.70
2023-03-04T21:52:14.743Z,5.73
2023-03-04T21:55:00.647Z,5.85
2023-03-04T21:57:45.748Z,5.87
2023-03-04T22:00:31.138Z,5.88
2023-03-04T22:03:16.502Z,5.76
2023-03-04T22:06:05.206Z,5.83
2023-03-04T22:08:52.320Z,5.81
2023-03-04T22:11:37.676Z,5.84
2023-03-04T22:14:22.774Z,5.78
2023-03-04T22:17:07.945Z,5.81
2023-03-04T22:19:53.641Z,5.78
2023-03-04T22:22:38.811Z,5.78
2023-03-04T22:25:23.930Z,5.75
2023-03-04T22:28:09.235Z,5.71
2023-03-04T22:30:56.038Z,5.69
2023-03-04T22:33:41.244Z,5.68
2023-03-04T22:36:28.713Z,5.67
2023-03-04T22:39:16.928Z,5.68
2023-03-04T22:42:01.884Z,5.73
2023-03-04T22:44:47.185Z,5.70
2023-03-04T22:47:32.286Z,5.75
2023-03-04T22:50:18.316Z,5.72
2023-03-04T22:53:06.709Z,5.69
2023-03-04T22:55:57.539Z,5.53
2023-03-04T22:58:44.683Z,5.71
2023-03-04T23:01:29.729Z,5.73
2023-03-04T23:04:14.940Z,5.72
2023-03-04T23:06:59.957Z,5.70
2023-03-04T23:09:45.138Z,5.71
2023-03-04T23:12:32.327Z,5.68
2023-03-04T23:15:18.696Z,5.68
2023-03-04T23:18:03.913Z,5.66
2023-03-04T23:20:49.064Z,5.68
2023-03-04T23:23:35.130Z,5.64
2023-03-04T23:26:23.002Z,5.54
2023-03-04T23:29:11.335Z,5.60
2023-03-04T23:31:56.543Z,5.68
2023-03-04T23:34:42.140Z,5.62
2023-03-04T23:37:27.416Z,5.61
2023-03-04T23:40:13.311Z,5.49
2023-03-04T23:42:58.588Z,5.58
2023-03-04T23:45:44.209Z,5.56
2023-03-04T23:48:29.536Z,5.50
2023-03-04T23:51:20.852Z,5.52
2023-03-04T23:54:05.736Z,5.23
2023-03-04T23:56:51.087Z,5.48
2023-03-04T23:59:38.621Z,5.44
